sensor_id;sensor_type;location;lat;lon;timestamp;pressure;altitude;pressure_sealevel;temperature;humidity
9257;BME280;4665;51.368;6.782;2023-03-04T00:01:01;102235.13;;;4.17;100.00
9257;BME280;4665;51.368;6.782;2023-03-04T00:03:26;102216.19;;;4.09;100.00
9257;BME280;4665;51.368;6.782;2023-03-04T00:05:52;102208.53;;;4.05;100.00
9257;BME280;4665;51.368;6.782;2023-03-04T00:08:17;102214.19;;;4.14;100.00
9257;BME280;4665;51.368;6.782;2023-03-04T00:10:44;102216.88;;;4.13;100.00
9257;BME280;4665;51.368;6.782;2023-03-04T00:13:09;102228.75;;;4.21;100.00
9257;BME280;4665;51.368;6.782;2023-03-04T00:15:35;102210.84;;;4.11;100.00
9257;BME280;4665;51.368;6.782;2023-03-04T00:18:00;102211.78;;;4.10;100.00
9257;BME280;4665;51.368;6.782;2023-03-04T00:20:26;102216.88;;;4.13;100.00
9257;BME280;4665;51.368;6.782;2023-03-04T00:22:51;102216.88;;;4.13;100.00
9257;BME280;4665;51.368;6.782;2023-03-04T00:25:16;102212.78;;;4.07;100.00
9257;BME280;4665;51.368;6.782;2023-03-04T00:27:42;102202.47;;;4.03;100.00
9257;BME280;4665;51.368;6.782;2023-03-04T00:30:08;102208.69;;;4.02;100.00
9257;BME280;4665;51.368;6.782;2023-03-04T00:32:33;102202.63;;;3.99;100.00
9257;BME280;4665;51.368;6.782;2023-03-04T00:34:59;102231.88;;;4.12;100.00
9257;BME280;4665;51.368;6.782;2023-03-04T00:37:24;102231.78;;;4.14;100.00
9257;BME280;4665;51.368;6.782;2023-03-04T00:39:50;102216.28;;;4.08;100.00
9257;BME280;4665;51.368;6.782;2023-03-04T00:42:15;102204.56;;;3.96;100.00
9257;BME280;4665;51.368;6.782;2023-03-04T00:44:40;102219.00;;;4.06;100.00
9257;BME280;4665;51.368;6.782;2023-03-04T00:47:06;102211.31;;;4.02;100.00
9257;BME280;4665;51.368;6.782;2023-03-04T00:49:31;102219.91;;;4.05;100.00
9257;BME280;4665;51.368;6.782;2023-03-04T00:51:56;102196.03;;;3.91;100.00
9257;BME280;4665;51.368;6.782;2023-03-04T00:54:22;102196.19;;;3.88;100.00
9257;BME280;4665;51.368;6.782;2023-03-04T00:56:47;102195.25;;;3.89;100.00
9257;BME280;4665;51.368;6.782;2023-03-04T00:59:13;102202.88;;;3.95;100.00
9257;BME280;4665;51.368;6.782;2023-03-04T01:01:38;102206.13;;;4.00;100.00
9257;BME280;4665;51.368;6.782;2023-03-04T01:04:04;102195.50;;;4.02;100.00
9257;BME280;4665;51.368;6.782;2023-03-04T01:06:29;102204.09;;;4.05;100.00
9257;BME280;4665;51.368;6.782;2023-03-04T01:08:54;102207.44;;;4.09;100.00
9257;BME280;4665;51.368;6.782;2023-03-04T01:11:20;102192.22;;;3.96;100.00
9257;BME280;4665;51.368;6.782;2023-03-04T01:13:45;102212.78;;;4.07;100.00
9257;BME280;4665;51.368;6.782;2023-03-04T01:16:11;102195.78;;;3.95;100.00
9257;BME280;4665;51.368;6.782;2023-03-04T01:18:37;102180.81;;;3.96;100.00
9257;BME280;4665;51.368;6.782;2023-03-04T01:21:03;102179.81;;;3.98;100.00
9257;BME280;4665;51.368;6.782;2023-03-04T01:23:29;102190.97;;;4.04;100.00
9257;BME280;4665;51.368;6.782;2023-03-04T01:25:54;102192.09;;;3.99;100.00
9257;BME280;4665;51.368;6.782;2023-03-04T01:28:20;102191.06;;;4.19;100.00
9257;BME280;4665;51.368;6.782;2023-03-04T01:30:45;102194.69;;;4.17;100.00
9257;BME280;4665;51.368;6.782;2023-03-04T01:33:10;102180.28;;;4.07;100.00
9257;BME280;4665;51.368;6.782;2023-03-04T01:35:36;102173.63;;;3.99;100.00
9257;BME280;4665;51.368;6.782;2023-03-04T01:38:01;102170.88;;;4.01;100.00
9257;BME280;4665;51.368;6.782;2023-03-04T01:40:27;102170.19;;;4.15;100.00
9257;BME280;4665;51.368;6.782;2023-03-04T01:42:52;102157.41;;;4.07;100.00
9257;BME280;4665;51.368;6.782;2023-03-04T01:45:19;102186.78;;;4.17;100.00
9257;BME280;4665;51.368;6.782;2023-03-04T01:47:46;102165.78;;;3.98;100.00
9257;BME280;4665;51.368;6.782;2023-03-04T01:50:23;102170.88;;;4.01;100.00
9257;BME280;4665;51.368;6.782;2023-03-04T01:52:51;102170.09;;;3.99;100.00
9257;BME280;4665;51.368;6.782;2023-03-04T01:55:19;102162.13;;;4.00;100.00
9257;BME280;4665;51.368;6.782;2023-03-04T01:57:46;102170.41;;;4.10;100.00
9257;BME280;4665;51.368;6.782;2023-03-04T02:02:50;102186.09;;;4.13;100.00
9257;BME280;4665;51.368;6.782;2023-03-04T02:05:17;102168.25;;;4.01;100.00
9257;BME280;4665;51.368;6.782;2023-03-04T02:07:43;102178.63;;;4.21;100.00
9257;BME280;4665;51.368;6.782;2023-03-04T02:10:10;102150.44;;;4.06;100.00
9257;BME280;4665;51.368;6.782;2023-03-04T02:12:36;102151.19;;;4.08;100.00
9257;BME280;4665;51.368;6.782;2023-03-04T02:15:02;102143.19;;;4.10;100.00
9257;BME280;4665;51.368;6.782;2023-03-04T02:17:28;102154.16;;;4.02;100.00
9257;BME280;4665;51.368;6.782;2023-03-04T02:20:09;102169.09;;;4.19;100.00
9257;BME280;4665;51.368;6.782;2023-03-04T02:22:41;102149.78;;;4.01;100.00
9257;BME280;4665;51.368;6.782;2023-03-04T02:25:17;102156.78;;;4.02;100.00
9257;BME280;4665;51.368;6.782;2023-03-04T02:27:46;102162.59;;;4.09;100.00
9257;BME280;4665;51.368;6.782;2023-03-04T02:30:19;102147.78;;;4.06;100.00
9257;BME280;4665;51.368;6.782;2023-03-04T02:32:45;102146.00;;;4.07;100.00
9257;BME280;4665;51.368;6.782;2023-03-04T02:35:18;102137.38;;;4.03;100.00
9257;BME280;4665;51.368;6.782;2023-03-04T02:37:43;102131.19;;;4.04;100.00
9257;BME280;4665;51.368;6.782;2023-03-04T02:40:34;102139.00;;;4.06;100.00
9257;BME280;4665;51.368;6.782;2023-03-04T02:43:00;102145.06;;;4.08;100.00
9257;BME280;4665;51.368;6.782;2023-03-04T02:45:44;102158.09;;;4.11;100.00
9257;BME280;4665;51.368;6.782;2023-03-04T02:48:10;102147.63;;;4.09;100.00
9257;BME280;4665;51.368;6.782;2023-03-04T02:50:40;102158.78;;;4.14;100.00
9257;BME280;4665;51.368;6.782;2023-03-04T02:53:07;102141.16;;;4.15;100.00
9257;BME280;4665;51.368;6.782;2023-03-04T02:55:33;102145.59;;;4.14;100.00
9257;BME280;4665;51.368;6.782;2023-03-04T02:57:58;102140.63;;;4.08;100.00
9257;BME280;4665;51.368;6.782;2023-03-04T03:00:25;102129.09;;;4.11;100.00
9257;BME280;4665;51.368;6.782;2023-03-04T03:02:50;102147.94;;;4.20;100.00
9257;BME280;4665;51.368;6.782;2023-03-04T03:05:16;102120.66;;;4.20;100.00
9257;BME280;4665;51.368;6.782;2023-03-04T03:07:41;102136.72;;;4.15;100.00
9257;BME280;4665;51.368;6.782;2023-03-04T03:10:07;102140.31;;;4.14;100.00
9257;BME280;4665;51.368;6.782;2023-03-04T03:12:32;102133.50;;;4.10;100.00
9257;BME280;4665;51.368;6.782;2023-03-04T03:14:58;102123.19;;;4.06;100.00
9257;BME280;4665;51.368;6.782;2023-03-04T03:17:23;102121.41;;;4.06;100.00
9257;BME280;4665;51.368;6.782;2023-03-04T03:19:49;102120.63;;;4.04;100.00
9257;BME280;4665;51.368;6.782;2023-03-04T03:22:14;102107.84;;;3.96;100.00
9257;BME280;4665;51.368;6.782;2023-03-04T03:24:40;102118.00;;;4.04;100.00
9257;BME280;4665;51.368;6.782;2023-03-04T03:27:05;102119.69;;;4.05;100.00
9257;BME280;4665;51.368;6.782;2023-03-04T03:29:30;102110.34;;;3.99;100.00
9257;BME280;4665;51.368;6.782;2023-03-04T03:31:56;102120.41;;;4.09;100.00
9257;BME280;4665;51.368;6.782;2023-03-04T03:34:22;102104.03;;;4.02;100.00
9257;BME280;4665;51.368;6.782;2023-03-04T03:36:47;102114.34;;;4.07;100.00
9257;BME280;4665;51.368;6.782;2023-03-04T03:39:13;102095.66;;;3.94;100.00
9257;BME280;4665;51.368;6.782;2023-03-04T03:41:40;102095.59;;;3.95;100.00
9257;BME280;4665;51.368;6.782;2023-03-04T03:44:06;102117.84;;;4.07;100.00
9257;BME280;4665;51.368;6.782;2023-03-04T03:46:32;102101.72;;;3.96;100.00
9257;BME280;4665;51.368;6.782;2023-03-04T03:48:57;102106.91;;;3.97;100.00
9257;BME280;4665;51.368;6.782;2023-03-04T03:51:23;102097.44;;;3.93;100.00
9257;BME280;4665;51.368;6.782;2023-03-04T03:53:48;102092.34;;;3.90;100.00
9257;BME280;4665;51.368;6.782;2023-03-04T03:56:13;102094.75;;;3.95;100.00
9257;BME280;4665;51.368;6.782;2023-03-04T03:58:39;102091.34;;;3.93;100.00
9257;BME280;4665;51.368;6.782;2023-03-04T04:01:04;102101.88;;;3.93;100.00
9257;BME280;4665;51.368;6.782;2023-03-04T04:03:29;102116.28;;;4.03;100.00
9257;BME280;4665;51.368;6.782;2023-03-04T04:05:55;102096.50;;;3.94;100.00
9257;BME280;4665;51.368;6.782;2023-03-04T04:08:20;102119.69;;;4.05;100.00
9257;BME280;4665;51.368;6.782;2023-03-04T04:10:46;102100.81;;;3.97;100.00
9257;BME280;4665;51.368;6.782;2023-03-04T04:13:11;102096.50;;;3.94;100.00
9257;BME280;4665;51.368;6.782;2023-03-04T04:15:37;102105.91;;;4.00;100.00
9257;BME280;4665;51.368;6.782;2023-03-04T04:18:04;102115.13;;;4.09;100.00
9257;BME280;4665;51.368;6.782;2023-03-04T04:20:29;102121.00;;;4.14;100.00
9257;BME280;4665;51.368;6.782;2023-03-04T04:22:55;102107.59;;;4.18;100.00
9257;BME280;4665;51.368;6.782;2023-03-04T04:25:20;102101.47;;;4.18;100.00
9257;BME280;4665;51.368;6.782;2023-03-04T04:27:46;102101.53;;;4.16;100.00
9257;BME280;4665;51.368;6.782;2023-03-04T04:30:11;102094.03;;;4.09;100.00
9257;BME280;4665;51.368;6.782;2023-03-04T04:32:37;102111.78;;;4.22;100.00
9257;BME280;4665;51.368;6.782;2023-03-04T04:35:02;102098.53;;;4.07;100.00
9257;BME280;4665;51.368;6.782;2023-03-04T04:37:28;102104.81;;;4.04;100.00
9257;BME280;4665;51.368;6.782;2023-03-04T04:39:53;102122.03;;;4.11;100.00
9257;BME280;4665;51.368;6.782;2023-03-04T04:42:20;102096.19;;;4.00;100.00
9257;BME280;4665;51.368;6.782;2023-03-04T04:44:45;102108.31;;;4.05;100.00
9257;BME280;4665;51.368;6.782;2023-03-04T04:47:11;102097.81;;;4.03;100.00
9257;BME280;4665;51.368;6.782;2023-03-04T04:49:36;102096.25;;;4.16;100.00
9257;BME280;4665;51.368;6.782;2023-03-04T04:52:02;102115.50;;;4.18;100.00
9257;BME280;4665;51.368;6.782;2023-03-04T04:54:27;102118.13;;;4.18;100.00
9257;BME280;4665;51.368;6.782;2023-03-04T04:56:53;102122.75;;;4.31;100.00
9257;BME280;4665;51.368;6.782;2023-03-04T04:59:18;102128.50;;;4.21;100.00
9257;BME280;4665;51.368;6.782;2023-03-04T05:01:43;102116.56;;;4.14;100.00
9257;BME280;4665;51.368;6.782;2023-03-04T05:04:09;102130.72;;;4.13;100.00
9257;BME280;4665;51.368;6.782;2023-03-04T05:06:34;102122.47;;;4.19;100.00
9257;BME280;4665;51.368;6.782;2023-03-04T05:09:00;102126.53;;;4.09;100.00
9257;BME280;4665;51.368;6.782;2023-03-04T05:11:26;102109.56;;;3.97;100.00
9257;BME280;4665;51.368;6.782;2023-03-04T05:13:51;102112.25;;;3.96;100.00
9257;BME280;4665;51.368;6.782;2023-03-04T05:16:17;102105.91;;;4.00;100.00
9257;BME280;4665;51.368;6.782;2023-03-04T05:18:43;102127.38;;;4.10;100.00
9257;BME280;4665;51.368;6.782;2023-03-04T05:21:08;102118.84;;;4.05;100.00
9257;BME280;4665;51.368;6.782;2023-03-04T05:23:36;102102.50;;;3.98;100.00
9257;BME280;4665;51.368;6.782;2023-03-04T05:26:04;102118.91;;;4.03;100.00
9257;BME280;4665;51.368;6.782;2023-03-04T05:28:30;102131.81;;;4.09;100.00
9257;BME280;4665;51.368;6.782;2023-03-04T05:30:56;102118.63;;;4.09;100.00
9257;BME280;4665;51.368;6.782;2023-03-04T05:33:22;102129.22;;;4.08;100.00
9257;BME280;4665;51.368;6.782;2023-03-04T05:35:48;102115.44;;;4.03;100.00
9257;BME280;4665;51.368;6.782;2023-03-04T05:38:15;102126.28;;;4.14;100.00
9257;BME280;4665;51.368;6.782;2023-03-04T05:40:41;102112.56;;;4.07;100.00
9257;BME280;4665;51.368;6.782;2023-03-04T05:43:07;102129.94;;;4.11;100.00
9257;BME280;4665;51.368;6.782;2023-03-04T05:45:33;102118.00;;;4.04;100.00
9257;BME280;4665;51.368;6.782;2023-03-04T05:47:58;102124.66;;;4.11;100.00
9257;BME280;4665;51.368;6.782;2023-03-04T05:50:23;102127.13;;;4.14;100.00
9257;BME280;4665;51.368;6.782;2023-03-04T05:52:49;102115.03;;;4.10;100.00
9257;BME280;4665;51.368;6.782;2023-03-04T05:55:15;102113.16;;;4.12;100.00
9257;BME280;4665;51.368;6.782;2023-03-04T05:57:40;102127.31;;;4.11;100.00
9257;BME280;4665;51.368;6.782;2023-03-04T06:00:06;102123.81;;;4.11;100.00
9257;BME280;4665;51.368;6.782;2023-03-04T06:02:37;102121.41;;;4.06;100.00
9257;BME280;4665;51.368;6.782;2023-03-04T06:05:03;102132.22;;;4.17;100.00
9257;BME280;4665;51.368;6.782;2023-03-04T06:07:28;102112.31;;;4.12;100.00
9257;BME280;4665;51.368;6.782;2023-03-04T06:09:54;102112.88;;;4.01;100.00
9257;BME280;4665;51.368;6.782;2023-03-04T06:12:19;102130.72;;;4.13;100.00
9257;BME280;4665;51.368;6.782;2023-03-04T06:14:44;102117.84;;;4.07;100.00
9257;BME280;4665;51.368;6.782;2023-03-04T06:17:10;102123.81;;;4.11;100.00
9257;BME280;4665;51.368;6.782;2023-03-04T06:19:35;102136.31;;;4.07;100.00
9257;BME280;4665;51.368;6.782;2023-03-04T06:22:02;102122.34;;;4.05;100.00
9257;BME280;4665;51.368;6.782;2023-03-04T06:24:28;102143.81;;;4.15;100.00
9257;BME280;4665;51.368;6.782;2023-03-04T06:26:53;102137.00;;;4.11;100.00
9257;BME280;4665;51.368;6.782;2023-03-04T06:29:19;102132.88;;;4.05;100.00
9257;BME280;4665;51.368;6.782;2023-03-04T06:31:44;102126.97;;;4.17;100.00
9257;BME280;4665;51.368;6.782;2023-03-04T06:34:10;102123.97;;;4.08;100.00
9257;BME280;4665;51.368;6.782;2023-03-04T06:36:36;102142.19;;;4.12;100.00
9257;BME280;4665;51.368;6.782;2023-03-04T06:39:05;102126.03;;;4.18;100.00
9257;BME280;4665;51.368;6.782;2023-03-04T06:41:31;102131.81;;;4.09;100.00
9257;BME280;4665;51.368;6.782;2023-03-04T06:43:57;102139.72;;;4.09;100.00
9257;BME280;4665;51.368;6.782;2023-03-04T06:46:23;102144.38;;;4.04;100.00
9257;BME280;4665;51.368;6.782;2023-03-04T06:48:48;102139.25;;;4.01;100.00
9257;BME280;4665;51.368;6.782;2023-03-04T06:51:14;102154.06;;;4.04;100.00
9257;BME280;4665;51.368;6.782;2023-03-04T06:53:40;102147.09;;;4.03;100.00
9257;BME280;4665;51.368;6.782;2023-03-04T06:56:08;102145.66;;;4.13;100.00
9257;BME280;4665;51.368;6.782;2023-03-04T06:58:34;102146.13;;;4.04;100.00
9257;BME280;4665;51.368;6.782;2023-03-04T07:03:40;102172.59;;;4.19;100.00
9257;BME280;4665;51.368;6.782;2023-03-04T07:06:07;102156.63;;;4.05;100.00
9257;BME280;4665;51.368;6.782;2023-03-04T07:08:33;102155.06;;;4.01;100.00
9257;BME280;4665;51.368;6.782;2023-03-04T07:10:59;102177.09;;;4.17;100.00
9257;BME280;4665;51.368;6.782;2023-03-04T07:13:24;102168.91;;;4.06;100.00
9257;BME280;4665;51.368;6.782;2023-03-04T07:15:49;102183.31;;;4.16;100.00
9257;BME280;4665;51.368;6.782;2023-03-04T07:18:15;102188.19;;;4.24;100.00
9257;BME280;4665;51.368;6.782;2023-03-04T07:20:40;102175.31;;;4.18;100.00
9257;BME280;4665;51.368;6.782;2023-03-04T07:23:05;102160.81;;;4.09;100.00
9257;BME280;4665;51.368;6.782;2023-03-04T07:25:31;102180.59;;;4.18;100.00
9257;BME280;4665;51.368;6.782;2023-03-04T07:27:56;102176.81;;;4.06;100.00
9257;BME280;4665;51.368;6.782;2023-03-04T07:30:22;102172.97;;;3.94;100.00
9257;BME280;4665;51.368;6.782;2023-03-04T07:32:47;102170.03;;;4.00;100.00
9257;BME280;4665;51.368;6.782;2023-03-04T07:35:12;102183.84;;;4.06;100.00
9257;BME280;4665;51.368;6.782;2023-03-04T07:37:38;102172.16;;;4.11;100.00
9257;BME280;4665;51.368;6.782;2023-03-04T07:40:05;102198.34;;;4.14;100.00
9257;BME280;4665;51.368;6.782;2023-03-04T07:42:32;102183.31;;;4.16;100.00
9257;BME280;4665;51.368;6.782;2023-03-04T07:44:58;102192.28;;;4.12;100.00
9257;BME280;4665;51.368;6.782;2023-03-04T07:47:25;102201.28;;;4.08;100.00
9257;BME280;4665;51.368;6.782;2023-03-04T07:49:51;102197.28;;;4.18;100.00
9257;BME280;4665;51.368;6.782;2023-03-04T07:52:17;102201.28;;;4.26;100.00
9257;BME280;4665;51.368;6.782;2023-03-04T07:54:42;102174.31;;;4.03;100.00
9257;BME280;4665;51.368;6.782;2023-03-04T07:57:08;102177.03;;;4.02;100.00
9257;BME280;4665;51.368;6.782;2023-03-04T07:59:33;102202.31;;;4.23;100.00
9257;BME280;4665;51.368;6.782;2023-03-04T08:01:59;102172.16;;;4.11;100.00
9257;BME280;4665;51.368;6.782;2023-03-04T08:04:24;102174.78;;;4.11;100.00
9257;BME280;4665;51.368;6.782;2023-03-04T08:06:49;102181.91;;;4.09;100.00
9257;BME280;4665;51.368;6.782;2023-03-04T08:09:15;102201.59;;;4.19;100.00
9257;BME280;4665;51.368;6.782;2023-03-04T08:11:40;102192.22;;;4.14;100.00
9257;BME280;4665;51.368;6.782;2023-03-04T08:14:06;102203.28;;;4.38;100.00
9257;BME280;4665;51.368;6.782;2023-03-04T08:16:33;102185.69;;;4.21;100.00
9257;BME280;4665;51.368;6.782;2023-03-04T08:19:00;102183.59;;;4.28;100.00
9257;BME280;4665;51.368;6.782;2023-03-04T08:21:27;102195.25;;;4.41;100.00
9257;BME280;4665;51.368;6.782;2023-03-04T08:23:53;102194.84;;;4.31;100.00
9257;BME280;4665;51.368;6.782;2023-03-04T08:26:34;102206.84;;;4.54;100.00
9257;BME280;4665;51.368;6.782;2023-03-04T08:29:03;102205.75;;;4.58;100.00
9257;BME280;4665;51.368;6.782;2023-03-04T08:31:29;102199.75;;;4.55;100.00
9257;BME280;4665;51.368;6.782;2023-03-04T08:33:54;102185.16;;;4.32;100.00
9257;BME280;4665;51.368;6.782;2023-03-04T08:36:20;102199.16;;;4.50;100.00
9257;BME280;4665;51.368;6.782;2023-03-04T08:38:46;102197.72;;;4.44;100.00
9257;BME280;4665;51.368;6.782;2023-03-04T08:41:11;102209.66;;;4.51;100.00
9257;BME280;4665;51.368;6.782;2023-03-04T08:43:37;102194.59;;;4.53;100.00
9257;BME280;4665;51.368;6.782;2023-03-04T08:46:03;102193.19;;;4.46;100.00
9257;BME280;4665;51.368;6.782;2023-03-04T08:48:28;102192.72;;;4.38;100.00
9257;BME280;4665;51.368;6.782;2023-03-04T08:50:54;102196.25;;;4.72;100.00
9257;BME280;4665;51.368;6.782;2023-03-04T08:53:20;102187.44;;;4.55;100.00
9257;BME280;4665;51.368;6.782;2023-03-04T08:55:46;102209.22;;;4.59;100.00
9257;BME280;4665;51.368;6.782;2023-03-04T08:58:12;102196.28;;;4.54;100.00
9257;BME280;4665;51.368;6.782;2023-03-04T09:00:40;102213.13;;;4.52;100.00
9257;BME280;4665;51.368;6.782;2023-03-04T09:03:07;102182.66;;;4.46;100.00
9257;BME280;4665;51.368;6.782;2023-03-04T09:05:32;102194.06;;;4.47;100.00
9257;BME280;4665;51.368;6.782;2023-03-04T09:07:58;102186.94;;;4.64;100.00
9257;BME280;4665;51.368;6.782;2023-03-04T09:10:24;102187.75;;;4.49;100.00
9257;BME280;4665;51.368;6.782;2023-03-04T09:12:50;102218.63;;;4.64;100.00
9257;BME280;4665;51.368;6.782;2023-03-04T09:15:16;102194.91;;;4.47;100.00
9257;BME280;4665;51.368;6.782;2023-03-04T09:17:41;102184.56;;;4.60;100.00
9257;BME280;4665;51.368;6.782;2023-03-04T09:20:08;102204.31;;;4.69;100.00
9257;BME280;4665;51.368;6.782;2023-03-04T09:22:35;102204.31;;;4.69;100.00
9257;BME280;4665;51.368;6.782;2023-03-04T09:25:00;102195.97;;;4.60;100.00
9257;BME280;4665;51.368;6.782;2023-03-04T09:27:26;102203.03;;;4.60;100.00
9257;BME280;4665;51.368;6.782;2023-03-04T09:29:51;102202.19;;;4.75;100.00
9257;BME280;4665;51.368;6.782;2023-03-04T09:32:17;102196.84;;;4.77;100.00
9257;BME280;4665;51.368;6.782;2023-03-04T09:34:42;102185.69;;;4.72;100.00
9257;BME280;4665;51.368;6.782;2023-03-04T09:37:07;102178.53;;;4.74;100.00
9257;BME280;4665;51.368;6.782;2023-03-04T09:39:33;102187.66;;;4.84;100.00
9257;BME280;4665;51.368;6.782;2023-03-04T09:41:59;102197.91;;;4.90;100.00
9257;BME280;4665;51.368;6.782;2023-03-04T09:44:29;102196.13;;;5.06;100.00
9257;BME280;4665;51.368;6.782;2023-03-04T09:47:00;102190.41;;;4.98;100.00
9257;BME280;4665;51.368;6.782;2023-03-04T09:49:27;102174.97;;;4.91;100.00
9257;BME280;4665;51.368;6.782;2023-03-04T09:52:17;102201.47;;;5.05;100.00
9257;BME280;4665;51.368;6.782;2023-03-04T10:00:12;102198.25;;;5.32;100.00
9257;BME280;4665;51.368;6.782;2023-03-04T10:03:03;102189.47;;;5.31;100.00
9257;BME280;4665;51.368;6.782;2023-03-04T10:05:35;102188.53;;;5.32;100.00
9257;BME280;4665;51.368;6.782;2023-03-04T10:08:39;102180.44;;;5.35;100.00
9257;BME280;4665;51.368;6.782;2023-03-04T10:11:16;102178.38;;;5.40;100.00
9257;BME280;4665;51.368;6.782;2023-03-04T10:16:32;102175.06;;;5.53;100.00
9257;BME280;4665;51.368;6.782;2023-03-04T10:19:23;102169.22;;;5.62;100.00
9257;BME280;4665;51.368;6.782;2023-03-04T10:21:53;102167.06;;;5.68;100.00
9257;BME280;4665;51.368;6.782;2023-03-04T10:24:20;102171.34;;;5.71;100.00
9257;BME280;4665;51.368;6.782;2023-03-04T10:27:03;102173.56;;;5.93;100.00
9257;BME280;4665;51.368;6.782;2023-03-04T10:29:32;102172.81;;;5.91;100.00
9257;BME280;4665;51.368;6.782;2023-03-04T10:31:57;102171.66;;;5.81;100.00
9257;BME280;4665;51.368;6.782;2023-03-04T10:34:23;102142.25;;;5.71;100.00
9257;BME280;4665;51.368;6.782;2023-03-04T10:37:04;102166.09;;;5.85;100.00
9257;BME280;4665;51.368;6.782;2023-03-04T10:39:35;102139.34;;;5.76;100.00
9257;BME280;4665;51.368;6.782;2023-03-04T10:44:51;102166.09;;;5.85;100.00
9257;BME280;4665;51.368;6.782;2023-03-04T10:47:16;102164.22;;;5.87;100.00
9257;BME280;4665;51.368;6.782;2023-03-04T10:49:50;102145.59;;;5.89;100.00
9257;BME280;4665;51.368;6.782;2023-03-04T10:52:37;102156.81;;;5.94;100.00
9257;BME280;4665;51.368;6.782;2023-03-04T10:55:18;102158.31;;;6.13;100.00
9257;BME280;4665;51.368;6.782;2023-03-04T10:57:48;102143.97;;;6.17;100.00
9257;BME280;4665;51.368;6.782;2023-03-04T11:00:34;102159.41;;;6.24;100.00
9257;BME280;4665;51.368;6.782;2023-03-04T11:05:48;102157.31;;;6.29;100.00
9257;BME280;4665;51.368;6.782;2023-03-04T11:08:20;102129.41;;;6.09;100.00
9257;BME280;4665;51.368;6.782;2023-03-04T11:10:46;102129.50;;;6.08;100.00
9257;BME280;4665;51.368;6.782;2023-03-04T11:13:23;102129.34;;;6.25;100.00
9257;BME280;4665;51.368;6.782;2023-03-04T11:16:04;102136.44;;;6.25;100.00
9257;BME280;4665;51.368;6.782;2023-03-04T11:21:05;102130.28;;;6.24;100.00
9257;BME280;4665;51.368;6.782;2023-03-04T11:23:48;102124.44;;;6.34;100.00
9257;BME280;4665;51.368;6.782;2023-03-04T11:26:20;102125.94;;;6.38;100.00
9257;BME280;4665;51.368;6.782;2023-03-04T11:29:11;102117.91;;;6.39;100.00
9257;BME280;4665;51.368;6.782;2023-03-04T11:31:45;102120.63;;;6.52;100.00
9257;BME280;4665;51.368;6.782;2023-03-04T11:34:23;102120.63;;;6.52;100.00
9257;BME280;4665;51.368;6.782;2023-03-04T11:36:58;102120.34;;;6.57;100.00
9257;BME280;4665;51.368;6.782;2023-03-04T11:44:33;102115.53;;;6.49;100.00
9257;BME280;4665;51.368;6.782;2023-03-04T11:55:36;102098.63;;;6.37;100.00
9257;BME280;4665;51.368;6.782;2023-03-04T12:22:50;102076.19;;;6.57;100.00
9257;BME280;4665;51.368;6.782;2023-03-04T12:28:39;102061.31;;;6.69;100.00
9257;BME280;4665;51.368;6.782;2023-03-04T12:31:16;102061.50;;;6.66;100.00
9257;BME280;4665;51.368;6.782;2023-03-04T12:37:00;102056.53;;;6.47;100.00
9257;BME280;4665;51.368;6.782;2023-03-04T12:45:14;102040.66;;;6.47;100.00
9257;BME280;4665;51.368;6.782;2023-03-04T12:50:41;102044.22;;;6.60;100.00
9257;BME280;4665;51.368;6.782;2023-03-04T12:53:29;102039.41;;;6.52;100.00
9257;BME280;4665;51.368;6.782;2023-03-04T12:55:58;102042.34;;;6.48;100.00
9257;BME280;4665;51.368;6.782;2023-03-04T12:58:29;102046.34;;;6.41;100.00
9257;BME280;4665;51.368;6.782;2023-03-04T13:01:13;102043.09;;;6.36;100.00
9257;BME280;4665;51.368;6.782;2023-03-04T13:11:54;102038.97;;;6.31;100.00
9257;BME280;4665;51.368;6.782;2023-03-04T13:16:50;102048.41;;;6.21;100.00
9257;BME280;4665;51.368;6.782;2023-03-04T13:24:58;102035.09;;;6.23;100.00
9257;BME280;4665;51.368;6.782;2023-03-04T13:27:49;102032.91;;;6.44;100.00
9257;BME280;4665;51.368;6.782;2023-03-04T13:51:29;102005.09;;;6.51;100.00
9257;BME280;4665;51.368;6.782;2023-03-04T13:56:31;101991.47;;;6.43;100.00
9257;BME280;4665;51.368;6.782;2023-03-04T14:06:47;101993.16;;;6.58;100.00
9257;BME280;4665;51.368;6.782;2023-03-04T14:09:23;101990.50;;;6.58;100.00
9257;BME280;4665;51.368;6.782;2023-03-04T14:11:51;101974.38;;;6.48;100.00
9257;BME280;4665;51.368;6.782;2023-03-04T14:14:21;101985.59;;;6.52;100.00
9257;BME280;4665;51.368;6.782;2023-03-04T14:16:51;101987.00;;;6.58;100.00
9257;BME280;4665;51.368;6.782;2023-03-04T14:19:24;101984.13;;;6.48;100.00
9257;BME280;4665;51.368;6.782;2023-03-04T14:21:51;101982.22;;;6.50;100.00
9257;BME280;4665;51.368;6.782;2023-03-04T14:24:18;101987.09;;;6.56;100.00
9257;BME280;4665;51.368;6.782;2023-03-04T14:26:44;101989.41;;;6.48;100.00
9257;BME280;4665;51.368;6.782;2023-03-04T14:29:27;101986.84;;;6.46;100.00
9257;BME280;4665;51.368;6.782;2023-03-04T14:31:57;101982.81;;;6.41;100.00
9257;BME280;4665;51.368;6.782;2023-03-04T14:34:28;101981.59;;;6.32;100.00
9257;BME280;4665;51.368;6.782;2023-03-04T14:36:56;101976.22;;;6.34;100.00
9257;BME280;4665;51.368;6.782;2023-03-04T14:39:25;101976.38;;;6.30;100.00
9257;BME280;4665;51.368;6.782;2023-03-04T14:41:53;101965.63;;;6.34;100.00
9257;BME280;4665;51.368;6.782;2023-03-04T14:46:52;101955.03;;;6.34;100.00
9257;BME280;4665;51.368;6.782;2023-03-04T14:49:19;101933.41;;;6.27;100.00
9257;BME280;4665;51.368;6.782;2023-03-04T14:51:50;101957.53;;;6.49;100.00
9257;BME280;4665;51.368;6.782;2023-03-04T14:54:35;101946.94;;;6.49;100.00
9257;BME280;4665;51.368;6.782;2023-03-04T14:57:19;101945.25;;;6.48;100.00
9257;BME280;4665;51.368;6.782;2023-03-04T14:59:46;101950.47;;;6.63;100.00
9257;BME280;4665;51.368;6.782;2023-03-04T15:02:33;101931.94;;;6.63;100.00
9257;BME280;4665;51.368;6.782;2023-03-04T15:05:07;101937.16;;;6.64;100.00
9257;BME280;4665;51.368;6.782;2023-03-04T15:07:35;101928.47;;;6.75;100.00
9257;BME280;4665;51.368;6.782;2023-03-04T15:10:03;101933.16;;;6.71;100.00
9257;BME280;4665;51.368;6.782;2023-03-04T15:12:32;101930.81;;;6.67;100.00
9257;BME280;4665;51.368;6.782;2023-03-04T15:15:28;101929.75;;;6.69;100.00
9257;BME280;4665;51.368;6.782;2023-03-04T15:17:59;101924.66;;;6.66;100.00
9257;BME280;4665;51.368;6.782;2023-03-04T15:20:27;101927.50;;;6.63;100.00